Time;durP1;ratioP1;P1;durP2;ratioP2;P2;SDS_P1;SDS_P2;PMS_P1;PMS_P2;Temp;Humidity;BMP_temperature;BMP_pressure;BME280_temperature;BME280_humidity;BME280_pressure;Samples;Min_cycle;Max_cycle;Signal;HPM_P1;HPM_P2
2021/05/21 05:51:03;;;;;;;8.82;5.10;;;;;;;;;;5256550;23;20048;-61
2021/05/21 05:53:33;;;;;;;7.50;5.53;;;;;;;;;;4894523;29;20069;-68
2021/05/21 05:55:59;;;;;;;5.80;4.47;;;;;;;;;;4894781;29;20040;-73
2021/05/21 05:58:26;;;;;;;5.93;4.68;;;;;;;;;;4877352;29;20037;-72
2021/05/21 06:00:52;;;;;;;7.88;4.10;;;;;;;;;;4872513;29;20151;-71
2021/05/21 06:03:18;;;;;;;7.50;4.68;;;;;;;;;;4893027;29;20441;-70
2021/05/21 06:05:44;;;;;;;6.63;4.82;;;;;;;;;;4894380;29;20053;-70
2021/05/21 06:08:10;;;;;;;8.52;5.72;;;;;;;;;;4896024;29;20111;-66
2021/05/21 06:10:37;;;;;;;11.93;6.10;;;;;;;;;;4897758;29;20036;-70
2021/05/21 06:13:04;;;;;;;8.63;5.88;;;;;;;;;;4898103;29;20017;-70
2021/05/21 06:15:31;;;;;;;8.00;5.50;;;;;;;;;;4898054;29;20032;-66
2021/05/21 06:17:57;;;;;;;7.18;4.75;;;;;;;;;;4880469;29;20436;-70
2021/05/21 06:20:23;;;;;;;7.65;4.93;;;;;;;;;;4897777;29;20115;-69
2021/05/21 06:22:50;;;;;;;9.18;5.35;;;;;;;;;;4896054;29;20084;-63
2021/05/21 06:25:19;;;;;;;6.35;4.95;;;;;;;;;;4896479;29;20565;-70
2021/05/21 06:27:45;;;;;;;7.10;4.35;;;;;;;;;;4894078;29;20020;-69
2021/05/21 06:30:12;;;;;;;6.57;4.25;;;;;;;;;;4896341;29;20033;-64
2021/05/21 06:32:39;;;;;;;6.47;4.80;;;;;;;;;;4896509;29;20064;-63
2021/05/21 06:35:06;;;;;;;7.55;4.40;;;;;;;;;;4878739;29;20043;-65
2021/05/21 06:37:32;;;;;;;6.25;3.97;;;;;;;;;;4896307;29;20024;-63
2021/05/21 06:39:58;;;;;;;7.85;4.32;;;;;;;;;;4895309;29;20020;-68
2021/05/21 06:42:24;;;;;;;8.15;4.35;;;;;;;;;;4896105;29;20040;-65
2021/05/21 06:44:50;;;;;;;7.03;4.13;;;;;;;;;;4889710;29;20029;-65
2021/05/21 06:47:16;;;;;;;8.90;4.10;;;;;;;;;;4877093;29;20032;-67
2021/05/21 06:49:42;;;;;;;7.80;4.20;;;;;;;;;;4889023;29;20021;-67
2021/05/21 06:52:08;;;;;;;7.82;4.43;;;;;;;;;;4893912;29;20458;-69
2021/05/21 06:54:37;;;;;;;7.68;4.32;;;;;;;;;;4890827;29;20507;-63
2021/05/21 06:57:03;;;;;;;8.95;4.55;;;;;;;;;;4883244;29;20059;-65
2021/05/21 06:59:30;;;;;;;5.32;4.20;;;;;;;;;;4887184;29;20045;-65
2021/05/21 07:01:56;;;;;;;9.00;4.07;;;;;;;;;;4895487;29;20115;-68
2021/05/21 07:04:22;;;;;;;11.27;4.45;;;;;;;;;;4896355;29;20099;-66
2021/05/21 07:06:48;;;;;;;5.82;3.75;;;;;;;;;;4896500;29;20449;-64
2021/05/21 07:09:14;;;;;;;4.65;4.00;;;;;;;;;;4896591;29;20072;-68
2021/05/21 07:11:40;;;;;;;5.70;4.00;;;;;;;;;;4895485;29;20036;-64
2021/05/21 07:14:08;;;;;;;8.15;5.47;;;;;;;;;;4896461;29;20092;-64
2021/05/21 07:16:34;;;;;;;6.78;4.90;;;;;;;;;;4896419;29;20017;-69
2021/05/21 07:19:00;;;;;;;7.15;4.38;;;;;;;;;;4894959;29;20029;-67
2021/05/21 07:21:27;;;;;;;6.15;4.00;;;;;;;;;;4895889;29;20041;-67
2021/05/21 07:23:53;;;;;;;6.75;4.40;;;;;;;;;;4896009;29;20063;-68
2021/05/21 07:26:19;;;;;;;5.65;4.13;;;;;;;;;;4896109;29;20044;-63
2021/05/21 07:28:46;;;;;;;7.90;4.20;;;;;;;;;;4895831;29;20028;-62
2021/05/21 07:31:12;;;;;;;7.30;4.90;;;;;;;;;;4896361;29;20029;-66
2021/05/21 07:33:38;;;;;;;9.55;4.60;;;;;;;;;;4896168;29;20025;-70
2021/05/21 07:36:05;;;;;;;5.95;3.95;;;;;;;;;;4896122;29;20035;-65
2021/05/21 07:38:32;;;;;;;7.22;4.10;;;;;;;;;;4895387;29;20029;-67
2021/05/21 07:40:58;;;;;;;6.15;4.18;;;;;;;;;;4895539;29;20028;-67
2021/05/21 07:43:24;;;;;;;5.88;4.50;;;;;;;;;;4895390;29;20033;-62
2021/05/21 07:45:50;;;;;;;7.40;4.80;;;;;;;;;;4895271;29;20094;-65
2021/05/21 07:48:17;;;;;;;7.00;3.90;;;;;;;;;;4895101;29;20021;-64
2021/05/21 07:50:43;;;;;;;7.20;4.65;;;;;;;;;;4894676;29;20053;-67
2021/05/21 07:53:12;;;;;;;6.22;4.40;;;;;;;;;;4895716;29;20051;-66
2021/05/21 07:55:38;;;;;;;6.32;4.10;;;;;;;;;;4895382;29;20036;-63
2021/05/21 07:58:06;;;;;;;6.35;4.20;;;;;;;;;;4895713;29;20461;-61
2021/05/21 08:00:32;;;;;;;6.63;4.47;;;;;;;;;;4895461;29;20103;-68
2021/05/21 08:02:58;;;;;;;8.50;4.82;;;;;;;;;;4895041;29;20243;-63
2021/05/21 08:05:24;;;;;;;6.65;4.50;;;;;;;;;;4895334;29;20052;-67
2021/05/21 08:07:51;;;;;;;6.13;4.80;;;;;;;;;;4895079;29;20056;-69
2021/05/21 08:10:17;;;;;;;8.95;4.10;;;;;;;;;;4894836;29;20059;-65
2021/05/21 08:12:43;;;;;;;7.35;4.78;;;;;;;;;;4894627;29;20541;-67
2021/05/21 08:15:09;;;;;;;7.53;4.40;;;;;;;;;;4895290;29;20040;-62
2021/05/21 08:17:35;;;;;;;5.93;4.50;;;;;;;;;;4895248;29;20631;-67
2021/05/21 08:20:02;;;;;;;6.38;4.00;;;;;;;;;;4894459;29;20048;-62
2021/05/21 08:22:28;;;;;;;6.28;3.70;;;;;;;;;;4895168;29;20575;-65
2021/05/21 08:24:54;;;;;;;4.75;3.65;;;;;;;;;;4895211;29;20381;-65
2021/05/21 08:27:21;;;;;;;5.30;4.00;;;;;;;;;;4894127;29;20029;-66
2021/05/21 08:29:47;;;;;;;6.03;4.20;;;;;;;;;;4895109;29;20465;-68
2021/05/21 08:32:13;;;;;;;6.15;3.55;;;;;;;;;;4893778;29;20096;-66
2021/05/21 08:34:39;;;;;;;10.70;3.95;;;;;;;;;;4895217;29;20028;-67
2021/05/21 08:37:05;;;;;;;5.70;4.07;;;;;;;;;;4894642;29;20036;-67
2021/05/21 08:39:31;;;;;;;6.40;4.00;;;;;;;;;;4895555;29;20029;-67
2021/05/21 08:41:58;;;;;;;7.68;4.70;;;;;;;;;;4894738;29;20060;-64
2021/05/21 08:44:26;;;;;;;6.35;4.28;;;;;;;;;;4894826;29;20029;-61
2021/05/21 08:46:52;;;;;;;7.78;4.20;;;;;;;;;;4875269;29;20059;-66
2021/05/21 08:49:19;;;;;;;6.63;4.50;;;;;;;;;;4876105;29;20036;-66
2021/05/21 08:51:46;;;;;;;6.90;3.95;;;;;;;;;;4875493;29;20061;-64
2021/05/21 08:54:12;;;;;;;5.22;4.15;;;;;;;;;;4876304;29;20021;-63
2021/05/21 08:56:38;;;;;;;8.45;3.92;;;;;;;;;;4876162;29;20517;-62
2021/05/21 08:59:04;;;;;;;5.07;3.95;;;;;;;;;;4875996;29;20473;-62
2021/05/21 09:01:31;;;;;;;5.65;3.95;;;;;;;;;;4875772;29;20076;-62
2021/05/21 09:04:03;;;;;;;6.65;3.70;;;;;;;;;;4876049;29;20025;-62
2021/05/21 09:06:30;;;;;;;5.70;3.60;;;;;;;;;;4876336;29;20041;-67
2021/05/21 09:08:56;;;;;;;5.25;3.45;;;;;;;;;;4876314;29;20037;-64
2021/05/21 09:11:22;;;;;;;4.78;3.30;;;;;;;;;;4872912;29;20497;-61
2021/05/21 09:13:51;;;;;;;5.07;3.47;;;;;;;;;;4876422;29;20112;-67
2021/05/21 09:16:19;;;;;;;5.53;3.45;;;;;;;;;;4875889;29;20032;-62
2021/05/21 09:19:01;;;;;;;6.90;3.08;;;;;;;;;;4875560;29;20693;-62
2021/05/21 09:21:45;;;;;;;5.85;3.50;;;;;;;;;;4875546;29;20056;-67
2021/05/21 09:24:11;;;;;;;6.78;3.83;;;;;;;;;;4875814;29;20430;-65
2021/05/21 09:26:39;;;;;;;5.85;3.70;;;;;;;;;;4875275;29;20132;-67
2021/05/21 09:29:05;;;;;;;8.10;3.40;;;;;;;;;;4876276;29;20021;-61
2021/05/21 09:31:31;;;;;;;4.03;3.40;;;;;;;;;;4876017;29;20037;-65
2021/05/21 09:34:00;;;;;;;6.05;3.35;;;;;;;;;;4875603;29;20080;-63
2021/05/21 09:36:33;;;;;;;5.57;3.40;;;;;;;;;;4876037;29;20028;-67
2021/05/21 09:39:00;;;;;;;14.27;3.83;;;;;;;;;;4876142;29;20029;-65
2021/05/21 09:41:27;;;;;;;12.93;4.70;;;;;;;;;;4875455;29;20037;-66
2021/05/21 09:43:53;;;;;;;22.58;6.20;;;;;;;;;;4883570;29;20025;-63
2021/05/21 09:46:20;;;;;;;20.85;6.32;;;;;;;;;;4897426;29;20059;-68
2021/05/21 09:48:47;;;;;;;15.73;4.95;;;;;;;;;;4898031;29;20025;-64
2021/05/21 09:51:13;;;;;;;5.82;3.38;;;;;;;;;;4897587;29;20382;-65
2021/05/21 09:53:40;;;;;;;8.35;3.50;;;;;;;;;;4898035;29;20048;-68
2021/05/21 09:56:07;;;;;;;6.32;3.25;;;;;;;;;;4897255;29;20172;-62
2021/05/21 09:58:33;;;;;;;6.15;3.60;;;;;;;;;;4896557;29;20393;-64
2021/05/21 10:01:16;;;;;;;5.47;3.50;;;;;;;;;;4898303;29;20033;-62
2021/05/21 10:03:43;;;;;;;3.85;2.90;;;;;;;;;;4897655;29;20033;-67
2021/05/21 10:06:09;;;;;;;3.72;2.90;;;;;;;;;;4897840;29;20112;-66
2021/05/21 10:08:38;;;;;;;3.65;2.55;;;;;;;;;;4897879;29;20028;-64
2021/05/21 10:11:05;;;;;;;5.50;3.15;;;;;;;;;;4897503;29;20040;-62
2021/05/21 10:13:31;;;;;;;5.75;2.80;;;;;;;;;;4897410;29;20115;-62
2021/05/21 10:15:57;;;;;;;4.38;3.10;;;;;;;;;;4897441;29;20075;-62
2021/05/21 10:18:24;;;;;;;4.15;3.40;;;;;;;;;;4897744;29;20385;-63
2021/05/21 10:20:51;;;;;;;3.92;3.10;;;;;;;;;;4897623;29;20065;-64
2021/05/21 10:23:19;;;;;;;4.95;3.30;;;;;;;;;;4897907;29;20540;-64
2021/05/21 10:25:48;;;;;;;6.82;2.83;;;;;;;;;;4896975;29;20040;-67
2021/05/21 10:28:17;;;;;;;5.70;3.10;;;;;;;;;;4897004;29;20162;-65
2021/05/21 10:30:44;;;;;;;4.75;2.80;;;;;;;;;;4897462;29;20024;-62
2021/05/21 10:33:12;;;;;;;3.08;2.60;;;;;;;;;;4897051;29;20044;-62
2021/05/21 10:35:39;;;;;;;4.75;2.72;;;;;;;;;;4897531;29;20039;-64
2021/05/21 10:38:18;;;;;;;7.35;2.88;;;;;;;;;;4897635;29;20069;-67
2021/05/21 10:40:44;;;;;;;8.18;3.30;;;;;;;;;;4897090;29;20084;-63
2021/05/21 10:43:17;;;;;;;7.82;4.45;;;;;;;;;;4897073;29;20021;-63
2021/05/21 10:45:53;;;;;;;8.85;4.55;;;;;;;;;;4897414;29;20143;-65
2021/05/21 10:48:26;;;;;;;7.63;3.72;;;;;;;;;;4896282;29;20820;-64
2021/05/21 10:51:07;;;;;;;5.95;3.03;;;;;;;;;;4896242;29;20072;-66
2021/05/21 10:53:33;;;;;;;4.15;2.10;;;;;;;;;;4895982;29;20049;-64
2021/05/21 10:56:03;;;;;;;4.32;2.40;;;;;;;;;;4895980;29;20040;-62
2021/05/21 10:58:31;;;;;;;5.63;2.00;;;;;;;;;;4895984;29;20545;-67
2021/05/21 11:01:11;;;;;;;6.70;2.53;;;;;;;;;;4896953;29;20039;-69
2021/05/21 11:03:58;;;;;;;3.83;2.28;;;;;;;;;;4896521;29;20505;-68
2021/05/21 11:06:25;;;;;;;3.25;1.80;;;;;;;;;;4896570;29;20056;-62
2021/05/21 11:09:03;;;;;;;3.47;2.35;;;;;;;;;;4896299;29;20059;-64
2021/05/21 11:11:47;;;;;;;4.88;2.50;;;;;;;;;;4896346;29;20043;-62
2021/05/21 11:14:19;;;;;;;3.08;1.77;;;;;;;;;;4895512;29;20069;-68
2021/05/21 11:17:06;;;;;;;3.35;1.88;;;;;;;;;;4887874;29;20116;-65
2021/05/21 11:19:33;;;;;;;3.08;2.00;;;;;;;;;;4879590;29;20037;-63
2021/05/21 11:22:06;;;;;;;5.40;2.35;;;;;;;;;;4896174;29;20044;-67
2021/05/21 11:24:37;;;;;;;2.58;1.90;;;;;;;;;;4895511;29;20376;-68
2021/05/21 11:27:03;;;;;;;3.93;1.70;;;;;;;;;;4879420;29;20038;-66
2021/05/21 11:29:30;;;;;;;3.50;2.42;;;;;;;;;;4896366;29;20024;-63
2021/05/21 11:31:56;;;;;;;4.18;2.30;;;;;;;;;;4895456;29;20036;-63
2021/05/21 11:34:22;;;;;;;4.68;2.30;;;;;;;;;;4895684;29;20043;-65
2021/05/21 11:36:48;;;;;;;6.25;3.15;;;;;;;;;;4896086;29;20055;-62
2021/05/21 11:39:14;;;;;;;4.22;2.33;;;;;;;;;;4896271;29;20037;-65
2021/05/21 11:41:44;;;;;;;6.47;2.22;;;;;;;;;;4892286;29;20041;-65
2021/05/21 11:44:10;;;;;;;5.32;1.60;;;;;;;;;;4860223;29;20485;-67
2021/05/21 11:46:40;;;;;;;7.18;1.90;;;;;;;;;;4882191;29;20144;-70
2021/05/21 11:49:09;;;;;;;4.70;1.70;;;;;;;;;;4895749;29;20029;-67
2021/05/21 11:51:35;;;;;;;4.05;2.05;;;;;;;;;;4910068;29;20144;-63
2021/05/21 11:54:05;;;;;;;4.70;1.60;;;;;;;;;;4895292;29;20182;-67
2021/05/21 11:56:31;;;;;;;3.35;1.60;;;;;;;;;;4895777;29;20053;-70
2021/05/21 11:59:01;;;;;;;4.68;1.55;;;;;;;;;;4895052;29;20036;-69
2021/05/21 12:01:28;;;;;;;3.55;1.60;;;;;;;;;;4894778;29;20545;-70
2021/05/21 12:03:54;;;;;;;4.90;2.10;;;;;;;;;;4893050;29;20029;-64
2021/05/21 12:06:20;;;;;;;3.03;1.80;;;;;;;;;;4875922;29;20033;-67
2021/05/21 12:08:48;;;;;;;4.47;1.60;;;;;;;;;;4876937;29;20032;-66
2021/05/21 12:11:14;;;;;;;3.72;1.90;;;;;;;;;;4885694;29;20544;-73
2021/05/21 12:13:41;;;;;;;4.18;1.75;;;;;;;;;;4891361;29;20044;-69
2021/05/21 12:16:20;;;;;;;4.30;1.80;;;;;;;;;;4891339;29;20492;-63
2021/05/21 12:18:47;;;;;;;3.20;1.45;;;;;;;;;;4893479;29;20032;-66
2021/05/21 12:21:20;;;;;;;2.85;1.50;;;;;;;;;;4894499;29;20036;-63
2021/05/21 12:23:50;;;;;;;4.28;1.60;;;;;;;;;;4890975;29;20021;-63
2021/05/21 12:26:17;;;;;;;3.45;1.70;;;;;;;;;;4887847;29;20458;-76
2021/05/21 12:28:43;;;;;;;5.13;2.22;;;;;;;;;;4892072;29;20032;-74
2021/05/21 12:31:11;;;;;;;4.25;2.15;;;;;;;;;;4895022;29;20470;-62
2021/05/21 12:33:41;;;;;;;3.42;1.60;;;;;;;;;;4894882;29;20033;-66
2021/05/21 12:36:07;;;;;;;3.63;1.70;;;;;;;;;;4891074;29;20084;-65
2021/05/21 12:38:34;;;;;;;4.78;2.20;;;;;;;;;;4895389;29;20388;-71
2021/05/21 12:41:00;;;;;;;4.32;1.70;;;;;;;;;;4895317;29;20379;-63
2021/05/21 12:43:30;;;;;;;2.70;1.60;;;;;;;;;;4894760;29;20029;-71
2021/05/21 12:46:02;;;;;;;4.85;1.80;;;;;;;;;;4884607;29;20080;-73
2021/05/21 12:48:45;;;;;;;3.63;1.77;;;;;;;;;;4880985;29;20476;-69
2021/05/21 12:51:19;;;;;;;5.10;1.70;;;;;;;;;;4875734;29;20140;-67
2021/05/21 12:53:45;;;;;;;2.50;1.33;;;;;;;;;;4876233;29;20358;-62
2021/05/21 12:56:27;;;;;;;4.13;1.70;;;;;;;;;;4876265;29;20069;-63
2021/05/21 12:58:53;;;;;;;4.07;1.70;;;;;;;;;;4859253;29;20036;-71
2021/05/21 13:01:19;;;;;;;5.28;1.83;;;;;;;;;;4876304;29;20049;-68
2021/05/21 13:03:51;;;;;;;5.65;2.15;;;;;;;;;;4876098;29;20037;-65
2021/05/21 13:06:24;;;;;;;4.63;1.90;;;;;;;;;;4875846;29;20040;-65
2021/05/21 13:08:50;;;;;;;15.73;2.20;;;;;;;;;;4876402;29;20030;-71
2021/05/21 13:11:16;;;;;;;7.45;1.58;;;;;;;;;;4891488;29;20076;-65
2021/05/21 13:13:42;;;;;;;8.18;3.30;;;;;;;;;;4895047;29;20619;-68
2021/05/21 13:16:08;;;;;;;3.50;1.60;;;;;;;;;;4894974;29;20460;-66
2021/05/21 13:18:34;;;;;;;3.78;1.40;;;;;;;;;;4879956;29;20052;-68
2021/05/21 13:21:08;;;;;;;3.15;1.70;;;;;;;;;;4898132;29;20048;-69
2021/05/21 13:23:34;;;;;;;4.10;1.42;;;;;;;;;;4898798;29;20033;-75
2021/05/21 13:26:07;;;;;;;3.67;1.65;;;;;;;;;;4897979;29;20480;-71
2021/05/21 13:28:40;;;;;;;4.10;1.95;;;;;;;;;;4881348;29;20037;-72
2021/05/21 13:31:06;;;;;;;4.20;1.30;;;;;;;;;;4895647;29;20041;-70
2021/05/21 13:33:32;;;;;;;3.22;1.30;;;;;;;;;;4877890;29;20037;-68
2021/05/21 13:35:58;;;;;;;4.43;2.03;;;;;;;;;;4894272;29;20524;-74
2021/05/21 13:38:25;;;;;;;3.33;1.40;;;;;;;;;;4889483;29;20045;-75
2021/05/21 13:40:51;;;;;;;7.25;3.38;;;;;;;;;;4879395;29;20065;-68
2021/05/21 13:43:18;;;;;;;6.57;2.67;;;;;;;;;;4881581;29;20085;-73
2021/05/21 13:45:47;;;;;;;5.60;2.58;;;;;;;;;;4897699;29;20366;-74
2021/05/21 13:48:13;;;;;;;3.42;1.38;;;;;;;;;;4897357;29;20040;-75
2021/05/21 13:50:40;;;;;;;4.82;1.40;;;;;;;;;;4897616;29;20060;-73
2021/05/21 13:53:07;;;;;;;2.15;1.30;;;;;;;;;;4898355;29;20477;-76
2021/05/21 13:55:33;;;;;;;3.22;1.48;;;;;;;;;;4897867;29;20125;-62
2021/05/21 13:58:00;;;;;;;2.08;1.10;;;;;;;;;;4897321;29;20060;-73
2021/05/21 14:00:26;;;;;;;4.90;1.35;;;;;;;;;;4897853;29;20044;-68
2021/05/21 14:02:52;;;;;;;2.58;1.17;;;;;;;;;;4897965;29;20043;-70
2021/05/21 14:05:20;;;;;;;2.40;1.25;;;;;;;;;;4898416;29;20048;-76
2021/05/21 14:07:46;;;;;;;3.10;1.20;;;;;;;;;;4898002;29;20385;-71
2021/05/21 14:10:12;;;;;;;3.65;1.10;;;;;;;;;;4898347;29;20052;-62
2021/05/21 14:12:38;;;;;;;2.00;1.30;;;;;;;;;;4897740;29;20111;-74
2021/05/21 14:15:05;;;;;;;5.88;1.30;;;;;;;;;;4898113;29;20052;-62
2021/05/21 14:17:31;;;;;;;3.85;1.30;;;;;;;;;;4897320;29;20032;-66
2021/05/21 14:19:57;;;;;;;3.58;1.38;;;;;;;;;;4897555;29;20032;-78
2021/05/21 14:22:23;;;;;;;3.28;1.30;;;;;;;;;;4897692;29;20032;-64
2021/05/21 14:24:50;;;;;;;3.90;1.50;;;;;;;;;;4897364;29;20100;-62
2021/05/21 14:27:17;;;;;;;2.67;1.30;;;;;;;;;;4897343;29;20032;-71
2021/05/21 14:29:43;;;;;;;2.58;1.25;;;;;;;;;;4896676;29;20084;-63
2021/05/21 14:32:09;;;;;;;4.55;2.33;;;;;;;;;;4896284;29;20099;-66
2021/05/21 14:34:35;;;;;;;2.88;1.80;;;;;;;;;;4897008;29;20028;-64
2021/05/21 14:37:04;;;;;;;4.03;1.30;;;;;;;;;;4897176;29;20032;-67
2021/05/21 14:39:30;;;;;;;2.83;1.10;;;;;;;;;;4896433;29;20040;-62
2021/05/21 14:41:56;;;;;;;2.10;1.05;;;;;;;;;;4897536;29;20099;-62
2021/05/21 14:44:22;;;;;;;2.75;1.20;;;;;;;;;;4897348;29;20033;-62
2021/05/21 14:46:50;;;;;;;3.22;1.02;;;;;;;;;;4896335;29;20072;-71
2021/05/21 14:49:16;;;;;;;1.85;1.10;;;;;;;;;;4895813;29;20076;-74
2021/05/21 14:51:44;;;;;;;3.30;1.23;;;;;;;;;;4895107;29;20526;-76
2021/05/21 14:54:10;;;;;;;4.82;1.83;;;;;;;;;;4897001;29;20053;-78
2021/05/21 14:56:36;;;;;;;3.05;1.63;;;;;;;;;;4897035;29;20388;-76
2021/05/21 14:59:02;;;;;;;4.03;1.50;;;;;;;;;;4897131;29;20024;-74
2021/05/21 15:01:29;;;;;;;2.80;1.20;;;;;;;;;;4896829;29;20076;-76
2021/05/21 15:03:55;;;;;;;3.08;1.10;;;;;;;;;;4897363;29;20029;-73
2021/05/21 15:06:22;;;;;;;3.10;1.33;;;;;;;;;;4896923;29;20079;-64
2021/05/21 15:08:49;;;;;;;3.22;1.42;;;;;;;;;;4896628;29;20020;-76
2021/05/21 15:11:15;;;;;;;3.70;1.50;;;;;;;;;;4897265;29;20119;-75
2021/05/21 15:13:44;;;;;;;2.67;1.30;;;;;;;;;;4896742;29;20032;-77
2021/05/21 15:26:28;;;;;;;2.55;1.30;;;;;;;;;;4877700;29;20159;-75
2021/05/21 15:28:54;;;;;;;4.00;1.40;;;;;;;;;;4889547;29;20082;-74
2021/05/21 15:31:21;;;;;;;4.57;1.65;;;;;;;;;;4862780;29;20037;-75
2021/05/21 15:33:48;;;;;;;5.10;1.60;;;;;;;;;;4872410;29;20539;-75
2021/05/21 15:36:14;;;;;;;2.33;1.30;;;;;;;;;;4896507;29;20031;-76
2021/05/21 15:38:40;;;;;;;2.58;1.30;;;;;;;;;;4890100;29;20061;-74
2021/05/21 15:41:16;;;;;;;6.38;2.45;;;;;;;;;;4888596;29;20397;-69
2021/05/21 15:46:44;;;;;;;2.47;1.35;;;;;;;;;;4811218;29;20166;-75
2021/05/21 15:59:12;;;;;;;3.60;1.75;;;;;;;;;;4799017;29;20027;-68
2021/05/21 16:01:39;;;;;;;5.03;2.28;;;;;;;;;;4796900;29;20098;-72
2021/05/21 16:04:05;;;;;;;4.63;1.65;;;;;;;;;;4799763;29;20488;-73
2021/05/21 16:06:32;;;;;;;4.60;2.38;;;;;;;;;;4799817;29;20166;-69
2021/05/21 16:08:58;;;;;;;5.22;2.60;;;;;;;;;;4797655;29;20466;-74
2021/05/21 16:11:33;;;;;;;6.68;4.18;;;;;;;;;;4799888;29;20091;-63
2021/05/21 16:14:00;;;;;;;11.32;6.53;;;;;;;;;;4801486;29;20067;-63
2021/05/21 16:19:09;;;;;;;6.43;2.60;;;;;;;;;;4801619;29;20503;-75
2021/05/21 16:21:35;;;;;;;5.95;1.77;;;;;;;;;;4817150;29;20088;-73
2021/05/21 16:24:04;;;;;;;5.32;1.85;;;;;;;;;;4882124;29;20431;-74
2021/05/21 16:26:31;;;;;;;2.72;1.30;;;;;;;;;;4889962;29;20048;-74
2021/05/21 16:28:57;;;;;;;4.43;1.80;;;;;;;;;;4892935;29;20016;-74
2021/05/21 16:31:23;;;;;;;4.75;1.92;;;;;;;;;;4893653;29;20195;-74
2021/05/21 16:33:50;;;;;;;7.25;2.03;;;;;;;;;;4894689;29;20028;-63
2021/05/21 16:36:16;;;;;;;3.67;1.63;;;;;;;;;;4893450;29;20041;-70
2021/05/21 16:38:43;;;;;;;6.38;1.63;;;;;;;;;;4890696;29;20035;-73
2021/05/21 16:41:16;;;;;;;6.22;1.70;;;;;;;;;;4893905;29;20024;-74
2021/05/21 16:43:46;;;;;;;5.65;2.30;;;;;;;;;;4893291;29;20029;-64
2021/05/21 16:46:13;;;;;;;5.68;1.90;;;;;;;;;;4891288;29;20068;-74
2021/05/21 16:48:40;;;;;;;4.70;1.75;;;;;;;;;;4891459;29;20084;-71
2021/05/21 16:51:06;;;;;;;5.22;1.88;;;;;;;;;;4893264;29;20564;-68
2021/05/21 16:53:39;;;;;;;5.63;2.00;;;;;;;;;;4894128;29;20124;-74
2021/05/21 16:56:09;;;;;;;4.22;2.10;;;;;;;;;;4894525;29;20096;-74
2021/05/21 16:58:36;;;;;;;5.50;3.15;;;;;;;;;;4891852;29;20536;-65
2021/05/21 17:01:02;;;;;;;7.07;2.95;;;;;;;;;;4894407;29;20025;-71
2021/05/21 17:03:28;;;;;;;8.13;3.00;;;;;;;;;;4895021;29;20028;-70
2021/05/21 17:05:54;;;;;;;8.63;4.03;;;;;;;;;;4895016;29;20110;-75
2021/05/21 17:08:21;;;;;;;8.85;3.60;;;;;;;;;;4895259;29;20077;-70
2021/05/21 17:10:49;;;;;;;3.70;1.90;;;;;;;;;;4891671;29;20028;-74
2021/05/21 17:13:15;;;;;;;5.25;2.03;;;;;;;;;;4894609;29;20227;-74
2021/05/21 17:21:22;;;;;;;6.03;2.65;;;;;;;;;;4893892;29;20544;-75
2021/05/21 17:48:00;;;;;;;7.97;3.20;;;;;;;;;;4892014;29;20044;-62
2021/05/21 17:58:42;;;;;;;5.18;2.53;;;;;;;;;;4891593;29;20052;-62
2021/05/21 18:09:34;;;;;;;16.38;3.70;;;;;;;;;;4889908;29;20141;-60
2021/05/21 19:02:38;;;;;;;10.48;3.97;;;;;;;;;;4882745;29;20095;-67
2021/05/21 19:05:06;;;;;;;7.78;3.13;;;;;;;;;;4895683;29;20032;-61
2021/05/21 19:17:55;;;;;;;7.68;3.80;;;;;;;;;;4896682;29;20043;-62
2021/05/21 19:20:26;;;;;;;8.05;3.45;;;;;;;;;;4896606;29;20040;-61
2021/05/21 19:25:34;;;;;;;9.55;3.80;;;;;;;;;;4896139;29;20483;-62
2021/05/21 19:28:10;;;;;;;7.82;4.20;;;;;;;;;;4896332;29;20068;-61
2021/05/21 19:33:14;;;;;;;13.48;6.05;;;;;;;;;;4895530;29;20099;-61
2021/05/21 19:59:11;;;;;;;8.10;3.20;;;;;;;;;;4836963;29;20074;-63
2021/05/21 20:12:01;;;;;;;8.48;3.13;;;;;;;;;;4819111;29;20049;-63
2021/05/21 20:14:28;;;;;;;8.10;2.85;;;;;;;;;;4819014;29;20065;-64
2021/05/21 20:17:01;;;;;;;11.20;2.80;;;;;;;;;;4818933;29;20039;-66
2021/05/21 20:19:28;;;;;;;8.40;2.85;;;;;;;;;;4819362;29;20064;-63
2021/05/21 20:21:55;;;;;;;6.60;2.55;;;;;;;;;;4822660;29;20052;-61
2021/05/21 20:24:21;;;;;;;5.85;2.50;;;;;;;;;;4874759;29;20049;-60
2021/05/21 20:26:47;;;;;;;8.27;3.20;;;;;;;;;;4876201;29;20041;-61
2021/05/21 20:29:39;;;;;;;8.57;2.75;;;;;;;;;;4876509;29;20111;-69
2021/05/21 21:01:52;;;;;;;13.23;3.15;;;;;;;;;;4894820;29;20504;-65
2021/05/21 21:06:55;;;;;;;6.35;3.08;;;;;;;;;;4892862;29;20041;-65
2021/05/21 21:22:14;;;;;;;4.10;2.80;;;;;;;;;;4893273;29;20040;-60
2021/05/21 21:45:43;;;;;;;7.13;4.40;;;;;;;;;;4856059;29;20046;-62
2021/05/21 21:58:30;;;;;;;6.15;3.60;;;;;;;;;;4857724;29;20074;-62
2021/05/21 22:08:57;;;;;;;5.85;3.60;;;;;;;;;;4858226;29;20029;-70
2021/05/21 22:16:57;;;;;;;6.15;3.63;;;;;;;;;;4859060;29;20155;-72
2021/05/21 22:22:38;;;;;;;5.78;3.30;;;;;;;;;;4861956;29;20067;-69
2021/05/21 22:24:35;;;;;;;4.57;3.45;;;;;;;;;;4871763;29;20052;-72
2021/05/21 22:27:01;;;;;;;6.88;3.58;;;;;;;;;;4879537;29;20120;-71
2021/05/21 22:29:27;;;;;;;5.35;3.60;;;;;;;;;;4879627;29;20064;-71
2021/05/21 22:31:53;;;;;;;5.80;3.63;;;;;;;;;;4879694;29;20033;-70
2021/05/21 22:34:20;;;;;;;4.28;3.35;;;;;;;;;;4879643;29;20029;-62
2021/05/21 22:36:47;;;;;;;6.40;2.97;;;;;;;;;;4879356;29;20029;-60
2021/05/21 22:39:14;;;;;;;4.47;3.70;;;;;;;;;;4879247;29;20029;-71
2021/05/21 22:41:44;;;;;;;6.90;3.30;;;;;;;;;;4887999;29;20039;-60
2021/05/21 22:44:11;;;;;;;6.45;3.70;;;;;;;;;;4897897;29;20532;-71
2021/05/21 22:46:37;;;;;;;7.75;3.63;;;;;;;;;;4898164;29;20496;-71
2021/05/21 22:49:04;;;;;;;8.13;3.30;;;;;;;;;;4898050;29;20361;-70
2021/05/21 22:51:30;;;;;;;8.32;3.70;;;;;;;;;;4896550;29;20132;-71
2021/05/21 22:53:56;;;;;;;6.60;3.45;;;;;;;;;;4898056;29;20028;-71
2021/05/21 22:56:22;;;;;;;6.95;3.80;;;;;;;;;;4897633;29;20033;-71
2021/05/21 22:58:48;;;;;;;7.57;3.22;;;;;;;;;;4897551;29;20110;-71
2021/05/21 23:01:14;;;;;;;8.60;3.42;;;;;;;;;;4897896;29;20029;-71
2021/05/21 23:03:40;;;;;;;9.52;3.25;;;;;;;;;;4897670;29;20127;-61
2021/05/21 23:06:06;;;;;;;5.47;3.33;;;;;;;;;;4897767;29;20036;-71
2021/05/21 23:08:33;;;;;;;4.75;3.20;;;;;;;;;;4897884;29;20540;-72
2021/05/21 23:10:59;;;;;;;4.82;2.90;;;;;;;;;;4897609;29;20417;-60
2021/05/21 23:13:25;;;;;;;10.05;3.60;;;;;;;;;;4897840;29;20033;-71
2021/05/21 23:15:51;;;;;;;5.00;3.10;;;;;;;;;;4897394;29;20579;-60
2021/05/21 23:18:17;;;;;;;7.55;3.35;;;;;;;;;;4897471;29;20052;-61
2021/05/21 23:20:43;;;;;;;5.78;3.17;;;;;;;;;;4897062;29;20036;-63
2021/05/21 23:23:09;;;;;;;5.65;3.03;;;;;;;;;;4897216;29;21290;-65
2021/05/21 23:25:36;;;;;;;6.88;2.97;;;;;;;;;;4897137;29;20032;-68
2021/05/21 23:28:02;;;;;;;4.43;2.90;;;;;;;;;;4896993;29;20120;-69
2021/05/21 23:30:28;;;;;;;6.93;3.10;;;;;;;;;;4897446;29;20465;-70
2021/05/21 23:32:54;;;;;;;7.25;2.80;;;;;;;;;;4897407;29;20452;-69
2021/05/21 23:35:20;;;;;;;5.40;2.78;;;;;;;;;;4897735;29;20040;-62
2021/05/21 23:37:47;;;;;;;4.30;2.60;;;;;;;;;;4897329;29;20540;-66
2021/05/21 23:40:14;;;;;;;8.00;2.88;;;;;;;;;;4896942;29;20570;-69
2021/05/21 23:42:40;;;;;;;5.75;2.65;;;;;;;;;;4897485;29;20048;-64
2021/05/21 23:45:06;;;;;;;6.85;3.15;;;;;;;;;;4879796;29;20451;-60
2021/05/21 23:47:32;;;;;;;5.30;2.30;;;;;;;;;;4879484;29;20063;-61
2021/05/21 23:49:58;;;;;;;5.13;2.60;;;;;;;;;;4896652;29;20138;-72
2021/05/21 23:52:24;;;;;;;7.60;2.42;;;;;;;;;;4879321;29;20055;-72
2021/05/21 23:54:51;;;;;;;5.97;2.47;;;;;;;;;;4896922;29;20028;-72
2021/05/21 23:57:17;;;;;;;5.20;2.42;;;;;;;;;;4896810;29;20020;-72
2021/05/21 23:59:43;;;;;;;5.95;2.28;;;;;;;;;;4896520;29;20060;-72
